Portada
METAR-TAF:

METAR-TAF

Aeroports :

Pyongyang, Corea del Nord

latitud: 39-02N, longitud: 125-47E, altitud: 36 m

METAR: manca

Hora: 22:26 (13:26 UTC)

Pronòstic

L'informe es va fer fa 9 hores i 26 minuts, a les 04:00 UTC
Pronòstic vàlid del 31 a les 06 UTC al 01 a les 06 UTC
Vent 8 kt del Sud
Visibilitat 10 km o més
sense núvols per sota de 1500 mi sense presència de cumulonimbus.
Evolucionant progressivament
l' 31 a les 12 UTC al 31 a les 14 UTC
Vent 4 kt del Oest/Nord-Oest
Visibilitat: 6000 m
Núvols disperses a una alçada de 3000 ft
Evolucionant progressivament
l' 01 a les 00 UTC al 01 a les 02 UTC
Vent 12 kt del Nord/Nord-Oest
Visibilitat 10 km o més
sense núvols per sota de 1500 mi sense presència de cumulonimbus.

TAF: ZKPY 310400Z 3106/0106 18004MPS CAVOK TX15/3106Z TN03/3121Z BECMG 3112/3114 30002MPS 6000 SCT030 BECMG 0100/0102 34006MPS CAVOK

Observacions i pronòstics meteorològics de més de 4000 aeroports (METAR i TAF).

Les estacions disponibles són els punts grocs i vermells al mapa.

Posi el ratolí al punt desitjat per veure el nom de l'estació.

Feu clic per veure les observacions i els pronòstics meteorològics.

Per canviar el mapa: feu clic els botons verds amb una creu de color negre per apropar; al botó verd amb un guió per allunyar la imatge; o en les fletxes verdes per a mapes adjacents.


METAR-TAF: